Time;durP1;ratioP1;P1;durP2;ratioP2;P2;SDS_P1;SDS_P2;PMS_P1;PMS_P2;Temp;Humidity;BMP_temperature;BMP_pressure;BME280_temperature;BME280_humidity;BME280_pressure;Samples;Min_cycle;Max_cycle;Signal;HPM_P1;HPM_P2
2023/12/24 00:01:04;;;;;;;22.25;12.65;;;308.00;2150.40;;;;;;5050866;28;20033;-52
2023/12/24 00:03:31;;;;;;;8.55;4.75;;;308.00;2150.40;;;;;;5050420;28;20095;-57
2023/12/24 00:05:57;;;;;;;17.85;11.35;;;308.00;2150.40;;;;;;5054699;28;20487;-57
2023/12/24 00:08:22;;;;;;;10.65;6.18;;;308.00;2124.80;;;;;;5052852;28;20120;-56
2023/12/24 00:10:48;;;;;;;15.63;11.32;;;308.00;2124.80;;;;;;5056918;28;20090;-53
2023/12/24 00:13:14;;;;;;;12.88;7.15;;;308.00;2124.80;;;;;;5049009;28;20053;-53
2023/12/24 00:15:43;;;;;;;24.02;14.32;;;308.00;2124.80;;;;;;5051842;28;20117;-57
2023/12/24 00:18:08;;;;;;;25.42;15.70;;;308.10;2124.80;;;;;;5051642;28;20029;-57
2023/12/24 00:20:34;;;;;;;19.00;12.35;;;308.10;2124.80;;;;;;5057825;28;20471;-52
2023/12/24 00:23:10;;;;;;;13.23;7.43;;;308.10;2124.80;;;;;;5068783;28;20458;-53
2023/12/24 00:25:42;;;;;;;8.68;5.40;;;308.10;2124.80;;;;;;5069664;28;20409;-57
2023/12/24 00:28:08;;;;;;;7.43;5.00;;;308.10;2099.20;;;;;;5062649;28;20032;-54
2023/12/24 00:30:34;;;;;;;21.35;13.98;;;308.10;2099.20;;;;;;5062537;28;20474;-55
2023/12/24 00:33:00;;;;;;;13.32;9.60;;;308.10;2099.20;;;;;;5075308;28;20029;-57
2023/12/24 00:35:27;;;;;;;10.43;6.30;;;308.10;2099.20;;;;;;5072699;28;20366;-57
2023/12/24 00:37:56;;;;;;;36.33;20.60;;;308.00;2099.20;;;;;;5078688;28;20041;-53
2023/12/24 00:40:22;;;;;;;23.73;14.38;;;307.80;2176.00;;;;;;5078875;28;20116;-55
2023/12/24 00:42:48;;;;;;;29.27;19.92;;;307.80;2150.40;;;;;;5075098;28;20429;-57
2023/12/24 00:45:14;;;;;;;32.92;22.58;;;307.70;2176.00;;;;;;5071926;28;20089;-54
2023/12/24 00:47:40;;;;;;;346.80;221.05;;;307.60;2201.60;;;;;;5071473;28;20032;-54
2023/12/24 00:50:07;;;;;;;128.70;77.47;;;307.70;2176.00;;;;;;5071654;28;20020;-54
2023/12/24 00:52:36;;;;;;;33.60;21.08;;;307.60;2176.00;;;;;;5072235;28;20021;-54
2023/12/24 00:55:03;;;;;;;122.20;77.53;;;307.60;2201.60;;;;;;5071895;28;20025;-58
2023/12/24 00:57:29;;;;;;;19.20;13.77;;;307.60;2201.60;;;;;;5071083;28;20097;-54
2023/12/24 00:59:54;;;;;;;32.47;17.77;;;307.70;2201.60;;;;;;5070809;28;20052;-56
2023/12/24 01:02:20;;;;;;;75.80;42.53;;;307.60;2201.60;;;;;;5071426;28;20463;-55
2023/12/24 01:04:46;;;;;;;48.95;33.25;;;307.60;2227.20;;;;;;5071387;28;20037;-55
2023/12/24 01:07:12;;;;;;;56.53;35.03;;;307.70;2201.60;;;;;;5071498;28;20032;-54
2023/12/24 01:09:39;;;;;;;52.90;31.92;;;307.60;2201.60;;;;;;5066694;28;20032;-59
2023/12/24 01:12:06;;;;;;;56.38;34.45;;;307.50;2201.60;;;;;;5074640;28;20028;-54
2023/12/24 01:14:32;;;;;;;36.15;23.42;;;307.50;2201.60;;;;;;5071297;28;20025;-58
2023/12/24 01:16:59;;;;;;;48.33;26.17;;;307.60;2176.00;;;;;;5071109;28;20021;-58
2023/12/24 01:19:25;;;;;;;45.88;27.95;;;307.80;2150.40;;;;;;5071024;28;20035;-54
2023/12/24 01:21:54;;;;;;;66.15;40.55;;;307.90;2124.80;;;;;;5071131;28;20029;-57
2023/12/24 01:24:20;;;;;;;60.10;36.35;;;307.90;2124.80;;;;;;5071151;28;20037;-54
2023/12/24 01:26:45;;;;;;;60.50;36.90;;;307.70;2176.00;;;;;;5071006;28;20453;-56
2023/12/24 01:29:11;;;;;;;57.00;37.05;;;307.80;2176.00;;;;;;5070972;28;20056;-54
2023/12/24 01:31:38;;;;;;;73.47;45.95;;;307.80;2176.00;;;;;;5070556;28;20024;-58
2023/12/24 01:34:04;;;;;;;64.05;36.75;;;307.60;2176.00;;;;;;5070995;28;20032;-54
2023/12/24 01:36:30;;;;;;;76.88;48.65;;;307.60;2150.40;;;;;;5071004;28;20115;-54
2023/12/24 01:38:55;;;;;;;70.47;45.15;;;307.70;2176.00;;;;;;5070322;28;20460;-54
2023/12/24 01:41:21;;;;;;;68.72;43.22;;;307.60;2176.00;;;;;;5070529;28;20382;-54
2023/12/24 01:43:48;;;;;;;61.33;37.80;;;307.70;2176.00;;;;;;5070602;28;20137;-57
2023/12/24 01:46:19;;;;;;;49.08;34.53;;;307.60;2176.00;;;;;;5070445;28;20032;-55
2023/12/24 01:48:45;;;;;;;39.25;23.52;;;307.80;2124.80;;;;;;5070341;28;20032;-55
2023/12/24 01:51:12;;;;;;;37.58;23.63;;;307.70;2150.40;;;;;;5070369;28;20024;-54
2023/12/24 01:53:39;;;;;;;53.72;34.45;;;307.70;2150.40;;;;;;5070788;28;20027;-54
2023/12/24 01:56:05;;;;;;;44.17;30.35;;;307.80;2150.40;;;;;;5070458;28;20474;-56
2023/12/24 01:58:31;;;;;;;34.03;23.33;;;307.50;2201.60;;;;;;5070465;28;20028;-53
2023/12/24 02:00:57;;;;;;;32.25;24.83;;;307.40;2201.60;;;;;;5070135;28;20031;-56
2023/12/24 02:03:24;;;;;;;55.55;34.67;;;307.40;2201.60;;;;;;5070114;28;20030;-55
2023/12/24 02:05:50;;;;;;;48.95;32.90;;;307.50;2201.60;;;;;;5070482;28;20020;-54
2023/12/24 02:08:21;;;;;;;41.95;25.58;;;307.40;2201.60;;;;;;5070039;28;20111;-54
2023/12/24 02:10:48;;;;;;;30.85;20.52;;;307.30;2227.20;;;;;;5070219;28;20036;-55
2023/12/24 02:13:15;;;;;;;26.27;19.98;;;307.20;2227.20;;;;;;5070223;28;20021;-55
2023/12/24 02:15:41;;;;;;;31.50;20.88;;;307.20;2227.20;;;;;;5070138;28;20038;-54
2023/12/24 02:18:07;;;;;;;17.85;12.13;;;282.50;2227.20;;;;;;5069814;28;20374;-54
2023/12/24 02:20:33;;;;;;;23.42;14.50;;;282.30;2227.20;;;;;;5069931;28;20460;-54
2023/12/24 02:22:59;;;;;;;20.33;13.63;;;282.30;2227.20;;;;;;5070174;28;20108;-54
2023/12/24 02:25:26;;;;;;;26.92;15.40;;;282.20;2252.80;;;;;;5069536;28;20031;-55
2023/12/24 02:28:02;;;;;;;21.88;14.15;;;282.20;2252.80;;;;;;5069991;28;20505;-57
2023/12/24 02:30:33;;;;;;;25.35;17.48;;;282.20;2252.80;;;;;;5069810;28;20086;-54
2023/12/24 02:33:01;;;;;;;23.58;17.27;;;282.10;2278.40;;;;;;5069602;28;20021;-54
2023/12/24 02:35:33;;;;;;;29.90;18.38;;;282.00;2278.40;;;;;;5056554;28;20028;-54
2023/12/24 02:38:00;;;;;;;28.42;17.83;;;282.00;2278.40;;;;;;5069411;28;20127;-54
2023/12/24 02:40:25;;;;;;;18.73;12.50;;;282.10;2278.40;;;;;;5070007;28;20420;-54
2023/12/24 02:42:51;;;;;;;21.85;13.02;;;282.00;2278.40;;;;;;5069597;28;20021;-54
2023/12/24 02:45:17;;;;;;;41.42;26.48;;;281.80;2278.40;;;;;;5069406;28;20039;-54
2023/12/24 02:47:43;;;;;;;38.55;24.73;;;281.90;2278.40;;;;;;5069583;28;20028;-54
2023/12/24 02:50:09;;;;;;;60.22;40.85;;;281.70;2278.40;;;;;;5068993;28;20492;-54
2023/12/24 02:52:35;;;;;;;65.55;44.42;;;256.80;2252.80;;;;;;5069481;28;20475;-54
2023/12/24 02:55:00;;;;;;;79.60;57.60;;;256.60;2252.80;;;;;;5069584;28;20028;-54
2023/12/24 02:57:26;;;;;;;94.10;65.72;;;256.40;2252.80;;;;;;5069117;28;20025;-58
2023/12/24 02:59:52;;;;;;;72.50;46.08;;;256.50;2252.80;;;;;;5069310;28;20458;-55
2023/12/24 03:02:18;;;;;;;58.47;44.17;;;256.40;2252.80;;;;;;5069044;28;20037;-57
2023/12/24 03:04:43;;;;;;;44.50;30.17;;;256.50;2252.80;;;;;;5069382;28;20481;-54
2023/12/24 03:07:09;;;;;;;47.60;29.92;;;256.30;2252.80;;;;;;5069097;28;20259;-55
2023/12/24 03:09:35;;;;;;;33.70;23.02;;;256.20;2252.80;;;;;;5069237;28;20107;-54
2023/12/24 03:12:01;;;;;;;35.30;21.55;;;256.10;2252.80;;;;;;5069276;28;20107;-54
2023/12/24 03:14:27;;;;;;;31.98;22.13;;;256.00;2252.80;;;;;;5069482;28;20048;-54
2023/12/24 03:16:54;;;;;;;29.35;19.33;;;256.00;2252.80;;;;;;5069282;28;20025;-54
2023/12/24 03:19:21;;;;;;;30.38;19.92;;;256.00;2252.80;;;;;;5069549;28;20055;-54
2023/12/24 03:21:46;;;;;;;30.48;19.85;;;231.30;2252.80;;;;;;5069053;28;20032;-53
2023/12/24 03:24:12;;;;;;;28.52;19.58;;;256.00;2252.80;;;;;;5069335;28;20090;-54
2023/12/24 03:26:38;;;;;;;26.15;17.63;;;231.30;2252.80;;;;;;5068782;28;20490;-57
2023/12/24 03:29:05;;;;;;;30.70;20.70;;;256.00;2252.80;;;;;;5069288;28;20035;-54
2023/12/24 03:31:31;;;;;;;33.97;23.85;;;256.10;2252.80;;;;;;5069030;28;20020;-54
2023/12/24 03:33:56;;;;;;;39.58;25.95;;;256.10;2252.80;;;;;;5068857;28;20359;-54
2023/12/24 03:36:22;;;;;;;36.47;23.67;;;256.00;2252.80;;;;;;5069030;28;20028;-54
2023/12/24 03:38:48;;;;;;;30.63;23.42;;;256.20;2252.80;;;;;;5068940;28;20036;-54
2023/12/24 03:41:15;;;;;;;35.15;22.20;;;256.20;2252.80;;;;;;5068944;28;20112;-54
2023/12/24 03:43:40;;;;;;;30.60;20.98;;;256.20;2252.80;;;;;;5069199;28;20482;-54
2023/12/24 03:46:06;;;;;;;26.30;17.75;;;256.00;2252.80;;;;;;5068715;28;20028;-54
2023/12/24 03:48:33;;;;;;;32.67;22.98;;;231.30;2252.80;;;;;;5069356;28;20031;-54
2023/12/24 03:50:59;;;;;;;29.13;20.55;;;256.10;2252.80;;;;;;5069038;28;20032;-54
2023/12/24 03:53:25;;;;;;;25.13;17.90;;;231.30;2252.80;;;;;;5068884;28;20075;-55
2023/12/24 03:55:51;;;;;;;27.55;18.58;;;231.20;2252.80;;;;;;5068923;28;20478;-54
2023/12/24 03:58:17;;;;;;;28.90;18.98;;;231.20;2252.80;;;;;;5068754;28;20048;-54
2023/12/24 04:00:43;;;;;;;26.75;17.65;;;231.30;2252.80;;;;;;5068809;28;20471;-54
2023/12/24 04:03:08;;;;;;;30.25;20.23;;;231.30;2252.80;;;;;;5071426;28;20374;-54
2023/12/24 04:05:34;;;;;;;34.80;25.05;;;231.30;2252.80;;;;;;5072644;28;20032;-54
2023/12/24 04:08:00;;;;;;;36.13;24.17;;;231.20;2252.80;;;;;;5072561;28;20142;-54
2023/12/24 04:10:25;;;;;;;50.13;34.58;;;231.10;2252.80;;;;;;5072239;28;20028;-54
2023/12/24 04:12:51;;;;;;;41.22;30.55;;;231.20;2252.80;;;;;;5072541;28;20024;-55
2023/12/24 04:15:17;;;;;;;39.13;25.23;;;231.10;2252.80;;;;;;5072161;28;20056;-54
2023/12/24 04:17:43;;;;;;;35.97;24.23;;;231.00;2252.80;;;;;;5072472;28;20048;-54
2023/12/24 04:20:09;;;;;;;51.53;33.38;;;231.10;2252.80;;;;;;5072170;28;20537;-53
2023/12/24 04:22:35;;;;;;;31.38;24.88;;;231.10;2252.80;;;;;;5072258;28;20061;-54
2023/12/24 04:25:01;;;;;;;30.92;21.88;;;231.00;2252.80;;;;;;5072110;28;20037;-53
2023/12/24 04:27:26;;;;;;;35.58;24.33;;;231.00;2252.80;;;;;;5071946;28;20017;-53
2023/12/24 04:29:52;;;;;;;35.80;25.60;;;231.00;2252.80;;;;;;5072158;28;20043;-55
2023/12/24 04:32:20;;;;;;;33.13;21.92;;;231.10;2252.80;;;;;;5072127;28;20048;-56
2023/12/24 04:34:46;;;;;;;31.33;23.25;;;231.20;2252.80;;;;;;5072373;28;20028;-54
2023/12/24 04:37:12;;;;;;;40.42;26.05;;;231.10;2252.80;;;;;;5063847;28;20544;-54
2023/12/24 04:39:38;;;;;;;33.15;22.08;;;231.10;2252.80;;;;;;5066735;28;20076;-53
2023/12/24 04:42:04;;;;;;;28.17;20.67;;;231.20;2252.80;;;;;;5071956;28;20098;-54
2023/12/24 04:44:29;;;;;;;27.73;21.48;;;231.20;2252.80;;;;;;5071692;28;20144;-54
2023/12/24 04:46:55;;;;;;;45.90;31.38;;;231.10;2252.80;;;;;;5071807;28;20465;-54
2023/12/24 04:49:21;;;;;;;38.42;25.38;;;231.10;2252.80;;;;;;5071456;28;20035;-54
2023/12/24 04:51:46;;;;;;;35.50;26.13;;;231.00;2252.80;;;;;;5072031;28;20016;-53
2023/12/24 04:54:12;;;;;;;36.13;25.38;;;230.90;2252.80;;;;;;5071750;28;20356;-54
2023/12/24 04:56:38;;;;;;;30.83;22.13;;;230.90;2252.80;;;;;;5071616;28;20017;-54
2023/12/24 04:59:04;;;;;;;35.80;23.25;;;230.80;2252.80;;;;;;5071762;28;20479;-54
2023/12/24 05:01:30;;;;;;;36.80;25.13;;;230.70;2252.80;;;;;;5071809;28;20027;-54
2023/12/24 05:03:56;;;;;;;35.08;24.75;;;230.60;2252.80;;;;;;5071174;28;20044;-54
2023/12/24 05:06:22;;;;;;;47.40;36.10;;;230.70;2252.80;;;;;;5071635;28;20516;-56
2023/12/24 05:08:48;;;;;;;40.95;28.67;;;230.80;2252.80;;;;;;5071168;28;20033;-58
2023/12/24 05:11:13;;;;;;;33.53;23.95;;;230.80;2252.80;;;;;;5071494;28;20491;-54
2023/12/24 05:13:39;;;;;;;35.95;23.42;;;230.70;2252.80;;;;;;5070884;28;20028;-53
2023/12/24 05:16:05;;;;;;;50.75;34.45;;;230.90;2252.80;;;;;;5071151;28;20090;-54
2023/12/24 05:18:35;;;;;;;50.28;33.50;;;230.70;2252.80;;;;;;5071002;28;20504;-54
2023/12/24 05:21:01;;;;;;;38.35;27.48;;;230.70;2252.80;;;;;;5071468;28;20023;-54
2023/12/24 05:23:26;;;;;;;41.22;27.98;;;230.80;2252.80;;;;;;5071284;28;20029;-54
2023/12/24 05:25:52;;;;;;;57.53;37.50;;;230.80;2252.80;;;;;;5071385;28;20332;-56
2023/12/24 05:28:18;;;;;;;64.30;39.47;;;230.70;2252.80;;;;;;5071160;28;20024;-58
2023/12/24 05:30:47;;;;;;;57.40;37.00;;;230.70;2252.80;;;;;;5071122;28;20489;-54
2023/12/24 05:33:13;;;;;;;60.97;40.55;;;230.70;2252.80;;;;;;5070748;28;20071;-54
2023/12/24 05:35:39;;;;;;;72.20;54.55;;;230.70;2252.80;;;;;;5071018;28;20071;-54
2023/12/24 05:38:05;;;;;;;74.18;47.20;;;230.60;2252.80;;;;;;5070283;28;20041;-55
2023/12/24 05:40:30;;;;;;;107.85;67.90;;;230.70;2252.80;;;;;;5070820;28;20470;-54
2023/12/24 05:42:56;;;;;;;68.32;45.85;;;230.80;2252.80;;;;;;5070193;28;20051;-54
2023/12/24 05:45:22;;;;;;;56.25;39.08;;;230.70;2252.80;;;;;;5070662;28;20029;-55
2023/12/24 05:47:48;;;;;;;76.97;46.35;;;230.60;2252.80;;;;;;5070386;28;20039;-54
2023/12/24 05:50:13;;;;;;;75.28;46.88;;;230.40;2252.80;;;;;;5070690;28;20481;-54
2023/12/24 05:52:41;;;;;;;96.57;60.17;;;230.40;2252.80;;;;;;5070546;28;20028;-53
2023/12/24 05:55:08;;;;;;;85.05;55.13;;;230.50;2252.80;;;;;;5070509;28;20074;-54
2023/12/24 05:57:34;;;;;;;97.40;64.80;;;230.50;2252.80;;;;;;5070715;28;20425;-53
2023/12/24 06:00:00;;;;;;;102.10;65.43;;;230.50;2252.80;;;;;;5070416;28;20021;-54
2023/12/24 06:02:26;;;;;;;108.95;68.40;;;230.40;2252.80;;;;;;5069973;28;20025;-54
2023/12/24 06:04:52;;;;;;;94.57;58.95;;;230.50;2252.80;;;;;;5070341;28;20467;-56
2023/12/24 06:07:17;;;;;;;91.38;60.17;;;230.50;2252.80;;;;;;5070192;28;20039;-53
2023/12/24 06:09:43;;;;;;;89.00;54.10;;;230.40;2252.80;;;;;;5070439;28;20103;-54
2023/12/24 06:12:09;;;;;;;72.45;49.13;;;230.40;2252.80;;;;;;5070367;28;20029;-54
2023/12/24 06:14:35;;;;;;;58.28;39.72;;;230.40;2252.80;;;;;;5069996;28;20031;-53
2023/12/24 06:17:01;;;;;;;59.85;40.95;;;205.70;2252.80;;;;;;5070109;28;20025;-55
2023/12/24 06:19:26;;;;;;;69.30;46.63;;;205.70;2252.80;;;;;;5069823;28;20482;-54
2023/12/24 06:21:52;;;;;;;74.55;48.65;;;230.40;2252.80;;;;;;5070307;28;20036;-58
2023/12/24 06:24:20;;;;;;;55.05;38.15;;;230.40;2252.80;;;;;;5069472;28;20160;-56
2023/12/24 06:26:49;;;;;;;57.97;35.92;;;205.70;2252.80;;;;;;5069476;28;20103;-54
2023/12/24 06:29:15;;;;;;;133.23;84.38;;;205.60;2252.80;;;;;;5069832;28;20032;-54
2023/12/24 06:31:41;;;;;;;143.02;100.20;;;205.50;2252.80;;;;;;5069850;28;20017;-54
2023/12/24 06:34:07;;;;;;;86.15;64.50;;;205.40;2252.80;;;;;;5069452;28;20028;-54
2023/12/24 06:36:32;;;;;;;83.07;59.78;;;205.50;2252.80;;;;;;5069818;28;20066;-54
2023/12/24 06:38:58;;;;;;;59.42;44.20;;;205.50;2252.80;;;;;;5069267;28;20044;-55
2023/12/24 06:41:24;;;;;;;45.42;31.23;;;205.50;2252.80;;;;;;5069877;28;20032;-54
2023/12/24 06:43:50;;;;;;;40.60;30.63;;;205.50;2252.80;;;;;;5069760;28;20048;-54
2023/12/24 06:46:16;;;;;;;48.13;33.42;;;205.60;2252.80;;;;;;5083345;28;20086;-56
2023/12/24 06:48:42;;;;;;;65.28;46.92;;;205.60;2252.80;;;;;;5069735;28;20459;-55
2023/12/24 06:51:08;;;;;;;50.03;34.97;;;205.70;2252.80;;;;;;5069331;28;20012;-54
2023/12/24 06:53:34;;;;;;;72.45;50.45;;;230.40;2252.80;;;;;;5069908;28;20027;-54
2023/12/24 06:56:00;;;;;;;85.22;62.53;;;205.70;2252.80;;;;;;5069352;28;20048;-55
2023/12/24 06:58:25;;;;;;;95.93;68.53;;;205.70;2252.80;;;;;;5069219;28;20478;-55
2023/12/24 07:00:51;;;;;;;51.22;36.20;;;230.50;2252.80;;;;;;5069389;28;20013;-54
2023/12/24 07:03:17;;;;;;;44.92;31.23;;;230.40;2252.80;;;;;;5069398;28;20427;-54
2023/12/24 07:05:43;;;;;;;52.65;42.78;;;230.50;2252.80;;;;;;5069226;28;20475;-54
2023/12/24 07:08:10;;;;;;;30.00;22.65;;;230.60;2252.80;;;;;;5069513;28;20028;-54
2023/12/24 07:10:36;;;;;;;30.55;23.60;;;230.40;2252.80;;;;;;5069056;28;20037;-54
2023/12/24 07:13:02;;;;;;;36.15;26.27;;;230.40;2252.80;;;;;;5069540;28;20021;-54
2023/12/24 07:15:31;;;;;;;44.10;28.73;;;230.70;2252.80;;;;;;5069179;28;20024;-54
2023/12/24 07:17:56;;;;;;;56.42;44.28;;;230.80;2252.80;;;;;;5068973;28;20390;-54
2023/12/24 07:20:22;;;;;;;59.08;48.03;;;230.70;2252.80;;;;;;5069232;28;20017;-55
2023/12/24 07:22:48;;;;;;;37.55;28.73;;;230.80;2252.80;;;;;;5069136;28;20031;-54
2023/12/24 07:25:14;;;;;;;35.13;23.08;;;231.00;2252.80;;;;;;5069137;28;20044;-54
2023/12/24 07:27:43;;;;;;;27.85;20.85;;;231.00;2252.80;;;;;;5069134;28;20411;-54
2023/12/24 07:30:09;;;;;;;60.03;40.08;;;231.00;2252.80;;;;;;5068902;28;20119;-58
2023/12/24 07:32:35;;;;;;;30.73;22.65;;;231.20;2252.80;;;;;;5069037;28;20112;-54
2023/12/24 07:35:01;;;;;;;35.90;21.98;;;231.30;2252.80;;;;;;5069195;28;20107;-54
2023/12/24 07:37:27;;;;;;;36.65;25.05;;;256.00;2252.80;;;;;;5072267;28;20029;-54
2023/12/24 07:39:52;;;;;;;39.63;33.92;;;231.30;2252.80;;;;;;5072897;28;20044;-54
2023/12/24 07:42:18;;;;;;;28.60;20.50;;;231.30;2252.80;;;;;;5072957;28;20017;-57
2023/12/24 07:44:44;;;;;;;31.17;21.10;;;231.30;2252.80;;;;;;5073107;28;20056;-54
2023/12/24 07:47:10;;;;;;;24.35;19.42;;;231.30;2252.80;;;;;;5072941;28;20463;-54
2023/12/24 07:49:35;;;;;;;29.50;20.80;;;231.10;2252.80;;;;;;5072843;28;20091;-54
2023/12/24 07:52:01;;;;;;;29.55;21.45;;;231.00;2252.80;;;;;;5072786;28;20375;-55
2023/12/24 07:54:27;;;;;;;27.48;18.65;;;231.20;2252.80;;;;;;5072714;28;20020;-54
2023/12/24 07:56:53;;;;;;;37.15;33.20;;;256.00;2252.80;;;;;;5073043;28;20025;-55
2023/12/24 07:59:18;;;;;;;45.20;36.47;;;256.20;2252.80;;;;;;5072649;28;20359;-55
2023/12/24 08:01:44;;;;;;;41.35;35.50;;;256.30;2252.80;;;;;;5073122;28;20016;-54
2023/12/24 08:04:10;;;;;;;34.63;27.67;;;256.70;2252.80;;;;;;5072379;28;20036;-55
2023/12/24 08:06:36;;;;;;;30.05;21.13;;;256.80;2252.80;;;;;;5072234;28;20021;-54
2023/12/24 08:09:02;;;;;;;35.83;27.27;;;281.70;2278.40;;;;;;5072568;28;20363;-54
2023/12/24 08:11:28;;;;;;;37.47;26.15;;;281.60;2278.40;;;;;;5072032;28;21222;-53
2023/12/24 08:13:54;;;;;;;29.58;20.02;;;256.80;2252.80;;;;;;5084759;28;20482;-55
2023/12/24 08:16:19;;;;;;;23.15;18.02;;;281.60;2278.40;;;;;;5078770;28;20086;-54
2023/12/24 08:18:45;;;;;;;40.60;35.40;;;281.60;2278.40;;;;;;5072221;28;20020;-54
2023/12/24 08:21:11;;;;;;;29.52;19.75;;;256.80;2252.80;;;;;;5072158;28;20024;-54
2023/12/24 08:23:38;;;;;;;29.95;20.67;;;256.70;2252.80;;;;;;5058895;28;20057;-54
2023/12/24 08:26:04;;;;;;;26.75;20.27;;;256.40;2252.80;;;;;;5072357;28;20444;-54
2023/12/24 08:28:30;;;;;;;29.17;21.25;;;256.10;2252.80;;;;;;5072430;28;20021;-54
2023/12/24 08:30:56;;;;;;;23.70;19.25;;;256.40;2252.80;;;;;;5071973;28;20391;-54
2023/12/24 08:33:21;;;;;;;26.45;19.15;;;256.50;2252.80;;;;;;5071958;28;20021;-55
2023/12/24 08:35:47;;;;;;;33.20;22.23;;;256.50;2252.80;;;;;;5072021;28;20120;-55
2023/12/24 08:38:13;;;;;;;32.65;25.27;;;256.80;2252.80;;;;;;5079209;28;20049;-58
2023/12/24 08:40:38;;;;;;;32.00;21.08;;;281.60;2278.40;;;;;;5071690;28;20039;-58
2023/12/24 08:43:05;;;;;;;38.80;30.67;;;256.90;2252.80;;;;;;5071994;28;20021;-54
2023/12/24 08:45:31;;;;;;;33.25;23.80;;;256.80;2252.80;;;;;;5072117;28;20543;-54
2023/12/24 08:47:57;;;;;;;34.42;24.70;;;256.70;2252.80;;;;;;5070502;28;20031;-55
2023/12/24 08:50:23;;;;;;;25.23;19.42;;;256.80;2252.80;;;;;;5078099;28;20032;-55
2023/12/24 08:52:49;;;;;;;24.83;17.52;;;256.90;2252.80;;;;;;5091924;28;20020;-53
2023/12/24 08:55:15;;;;;;;28.33;19.83;;;256.90;2252.80;;;;;;5091058;28;20023;-55
2023/12/24 08:57:41;;;;;;;24.75;16.17;;;256.90;2252.80;;;;;;5083484;28;20027;-54
2023/12/24 09:00:11;;;;;;;23.80;20.23;;;281.70;2278.40;;;;;;5071422;28;20058;-54
2023/12/24 09:02:40;;;;;;;19.17;14.45;;;281.90;2278.40;;;;;;5071291;28;20020;-54
2023/12/24 09:05:10;;;;;;;22.67;14.52;;;282.00;2278.40;;;;;;5071745;28;21236;-54
2023/12/24 09:07:36;;;;;;;20.50;14.07;;;282.00;2278.40;;;;;;5071289;28;20068;-54
2023/12/24 09:10:03;;;;;;;25.88;18.65;;;281.90;2278.40;;;;;;5071523;28;20029;-54
2023/12/24 09:12:29;;;;;;;30.20;20.80;;;281.90;2278.40;;;;;;5071640;28;20086;-54
2023/12/24 09:14:55;;;;;;;30.20;22.52;;;282.00;2278.40;;;;;;5076829;28;20402;-60
2023/12/24 09:17:21;;;;;;;32.15;22.48;;;282.10;2278.40;;;;;;5071291;28;20070;-60
2023/12/24 09:19:46;;;;;;;64.72;47.85;;;282.30;2278.40;;;;;;5068886;28;20426;-63
2023/12/24 09:22:12;;;;;;;51.40;36.03;;;282.50;2278.40;;;;;;5066875;28;20025;-67
2023/12/24 09:24:38;;;;;;;39.47;28.40;;;307.20;2304.00;;;;;;5074712;28;20031;-62
2023/12/24 09:27:04;;;;;;;71.22;50.67;;;307.50;2304.00;;;;;;5070917;28;20029;-63
2023/12/24 09:29:30;;;;;;;66.50;47.13;;;307.30;2304.00;;;;;;5057605;28;20028;-62
2023/12/24 09:31:56;;;;;;;60.55;43.20;;;307.70;2304.00;;;;;;5083509;28;20059;-64
2023/12/24 09:34:22;;;;;;;47.95;31.65;;;307.80;2304.00;;;;;;5090155;28;20021;-62
2023/12/24 09:36:47;;;;;;;44.38;33.17;;;307.90;2304.00;;;;;;5073381;28;20079;-69
2023/12/24 09:39:13;;;;;;;42.95;32.60;;;308.00;2304.00;;;;;;5077652;28;20056;-65
2023/12/24 09:41:39;;;;;;;35.03;25.95;;;308.10;2304.00;;;;;;5070604;28;20056;-70
2023/12/24 09:44:07;;;;;;;32.75;23.48;;;333.00;2329.60;;;;;;5070164;28;20037;-61
2023/12/24 09:46:34;;;;;;;33.40;27.27;;;333.00;2329.60;;;;;;5058861;28;20112;-62
2023/12/24 09:48:59;;;;;;;25.25;19.17;;;332.90;2329.60;;;;;;5071153;28;20395;-63
2023/12/24 09:51:26;;;;;;;27.52;20.45;;;332.90;2329.60;;;;;;5050293;28;20021;-63
2023/12/24 09:53:54;;;;;;;26.48;19.13;;;332.90;2329.60;;;;;;5052918;28;20052;-63
2023/12/24 09:56:20;;;;;;;26.67;20.17;;;333.30;2329.60;;;;;;5081333;28;20379;-69
2023/12/24 09:58:46;;;;;;;33.08;26.48;;;333.30;2329.60;;;;;;5070109;28;20268;-62
2023/12/24 10:01:12;;;;;;;26.83;19.67;;;333.30;2329.60;;;;;;5070719;28;20024;-69
2023/12/24 10:03:38;;;;;;;26.00;17.83;;;333.40;2329.60;;;;;;5069992;28;20029;-70
2023/12/24 10:06:08;;;;;;;34.30;24.83;;;333.60;2329.60;;;;;;5070361;28;20404;-68
2023/12/24 10:08:35;;;;;;;45.03;35.47;;;358.50;2329.60;;;;;;5069977;28;20021;-71
2023/12/24 10:11:20;;;;;;;31.50;22.60;;;358.40;2329.60;;;;;;5070218;28;20040;-62
2023/12/24 10:13:49;;;;;;;31.55;24.38;;;358.60;2329.60;;;;;;5082807;28;20355;-61
2023/12/24 10:16:15;;;;;;;63.50;47.90;;;358.90;2329.60;;;;;;5070057;28;20025;-62
2023/12/24 10:18:53;;;;;;;90.15;67.60;;;359.10;2304.00;;;;;;5069767;28;20477;-69
2023/12/24 10:21:19;;;;;;;202.25;150.90;;;358.80;2329.60;;;;;;5069997;28;20056;-65
2023/12/24 10:23:45;;;;;;;261.85;187.18;;;358.40;2329.60;;;;;;5069797;28;20039;-62
2023/12/24 10:26:12;;;;;;;221.75;157.68;;;333.50;2329.60;;;;;;5070328;28;20371;-62
2023/12/24 10:28:51;;;;;;;201.02;146.45;;;333.30;2329.60;;;;;;5069678;28;20366;-62
2023/12/24 10:31:17;;;;;;;188.90;141.70;;;333.40;2329.60;;;;;;5069820;28;20035;-68
2023/12/24 10:33:44;;;;;;;202.93;152.93;;;333.60;2329.60;;;;;;5069647;28;20027;-62
2023/12/24 10:36:10;;;;;;;182.55;135.00;;;358.60;2329.60;;;;;;5069027;28;20027;-65
2023/12/24 10:38:37;;;;;;;180.82;138.32;;;358.80;2329.60;;;;;;5068540;28;20045;-69
2023/12/24 10:41:03;;;;;;;226.70;176.65;;;358.60;2329.60;;;;;;5063306;28;20100;-63
2023/12/24 10:43:30;;;;;;;171.82;128.55;;;358.50;2329.60;;;;;;5057961;28;20028;-67
2023/12/24 10:45:55;;;;;;;147.75;112.45;;;358.80;2329.60;;;;;;5056619;28;20116;-68
2023/12/24 10:48:22;;;;;;;134.60;103.90;;;358.80;2329.60;;;;;;5069139;28;20111;-69
2023/12/24 10:50:49;;;;;;;136.05;108.95;;;358.80;2329.60;;;;;;5043483;28;20036;-67
2023/12/24 10:53:15;;;;;;;136.93;104.80;;;358.90;2329.60;;;;;;5067953;28;20032;-69
2023/12/24 10:55:50;;;;;;;149.50;119.70;;;358.90;2329.60;;;;;;5061002;28;20036;-61
2023/12/24 10:58:51;;;;;;;109.70;87.25;;;358.90;2329.60;;;;;;5039706;28;20036;-67
2023/12/24 11:01:17;;;;;;;109.60;81.88;;;358.80;2329.60;;;;;;4997693;28;20036;-69
2023/12/24 11:03:49;;;;;;;138.20;110.03;;;358.70;2329.60;;;;;;4994560;28;20512;-68
2023/12/24 11:06:36;;;;;;;130.07;97.37;;;358.70;2329.60;;;;;;4997850;28;20040;-66
2023/12/24 11:09:29;;;;;;;103.95;85.13;;;358.90;2329.60;;;;;;4995955;28;20060;-69
2023/12/24 11:11:56;;;;;;;131.73;115.18;;;359.00;2329.60;;;;;;4986850;28;20022;-63
2023/12/24 11:14:41;;;;;;;216.25;192.55;;;359.10;2329.60;;;;;;4996450;28;20567;-68
2023/12/24 11:17:31;;;;;;;151.00;122.22;;;359.00;2329.60;;;;;;4991568;28;20027;-69
2023/12/24 11:20:16;;;;;;;99.45;78.15;;;359.10;2329.60;;;;;;4990421;28;20029;-67
2023/12/24 11:23:02;;;;;;;57.10;43.83;;;359.10;2329.60;;;;;;4989188;28;20045;-69
2023/12/24 11:25:48;;;;;;;109.78;79.78;;;359.20;2329.60;;;;;;4990549;28;20138;-67
2023/12/24 11:28:36;;;;;;;103.70;80.93;;;359.20;2329.60;;;;;;4988822;28;20038;-68
2023/12/24 11:31:04;;;;;;;80.63;65.03;;;359.20;2304.00;;;;;;4984991;28;20150;-67
2023/12/24 11:33:35;;;;;;;121.13;92.30;;;359.20;2329.60;;;;;;4997964;28;20030;-61
2023/12/24 11:36:11;;;;;;;119.70;94.55;;;359.30;2329.60;;;;;;5045895;28;20091;-69
2023/12/24 11:38:39;;;;;;;53.67;41.75;;;384.00;2304.00;;;;;;5057378;28;20075;-70
2023/12/24 11:41:21;;;;;;;48.30;40.72;;;384.00;2304.00;;;;;;5058791;28;20024;-68
2023/12/24 11:43:58;;;;;;;50.43;44.70;;;384.10;2278.40;;;;;;5059961;28;20029;-68
2023/12/24 11:46:29;;;;;;;24.42;18.00;;;384.30;2201.60;;;;;;5055296;28;20510;-67
2023/12/24 11:48:56;;;;;;;186.48;146.15;;;384.40;2176.00;;;;;;5062077;28;20027;-69
2023/12/24 11:51:23;;;;;;;142.00;110.10;;;384.00;2304.00;;;;;;5056898;28;20025;-68
2023/12/24 11:53:57;;;;;;;217.43;169.82;;;359.30;2304.00;;;;;;5055470;28;20399;-65
2023/12/24 11:56:23;;;;;;;80.70;60.90;;;359.10;2304.00;;;;;;5058687;28;20047;-62
2023/12/24 11:58:49;;;;;;;64.38;47.22;;;384.00;2227.20;;;;;;5058353;28;20028;-65